Archival Weather

NSFA McMurdo Sound

NSFA McMurdo Sound, Antarctica (NZCM)

Report from: Saturday, February 24, 2024 3:55 PM UTC
Current time: Saturday, June 22, 2024 10:12 AM UTC

Current weather – Weather history – Daily summaries
Weather forecast

Temperature-14.8°C (5.4°F)
Wind chill-22.0°C (-7.6°F)
Dew point-28.6°C (-19.5°F)
Winds 7 kts (3.6 m/s, 8.1 mph) East-Northeast (70°)
Visibility6.2 mi. (10 km)
Clouds Sky clear
Altimeter29.16 in.Hg (987 mB)
Relative humidity30 %
Density altitude-6,268 ft. (-1,911 m)
Sea-level pressure108.8 kPa (1088 mB, 32.13 in.Hg)
Remarks Fully automated report
Automated weather observing station with precipitation discriminator
Flight conditions Visual Meteorological Conditions
Raw dataNZCM 241555Z AUTO 07007KT 9999 CLR M15/M29 A2916 RMK AO2 SLP880 T11481286
An error has occurred. This application may no longer respond until reloaded. Reload 🗙